Time;durP1;ratioP1;P1;durP2;ratioP2;P2;SDS_P1;SDS_P2;PMS_P1;PMS_P2;Temp;Humidity;BMP_temperature;BMP_pressure;BME280_temperature;BME280_humidity;BME280_pressure;Samples;Min_cycle;Max_cycle;Signal;HPM_P1;HPM_P2
2023/03/04 00:01:42;;;;;;;16.20;2.10;;;5.90;99.90;;;;;;5055663;28;20041;-87
2023/03/04 00:04:08;;;;;;;10.30;1.42;;;5.90;99.90;;;;;;5069152;28;20040;-87
2023/03/04 00:06:34;;;;;;;10.68;1.88;;;5.90;99.90;;;;;;5062333;28;20402;-87
2023/03/04 00:08:59;;;;;;;10.95;1.70;;;5.90;99.90;;;;;;5073688;28;20033;-87
2023/03/04 00:11:25;;;;;;;7.82;1.33;;;6.00;99.90;;;;;;5071657;28;20067;-88
2023/03/04 00:13:51;;;;;;;15.55;1.70;;;5.90;99.90;;;;;;5075529;28;20035;-87
2023/03/04 00:16:17;;;;;;;13.60;1.70;;;5.90;99.90;;;;;;5071782;28;20098;-88
2023/03/04 00:18:43;;;;;;;10.75;2.35;;;5.90;99.90;;;;;;5071311;28;20398;-88
2023/03/04 00:21:11;;;;;;;8.65;1.83;;;5.90;99.90;;;;;;5055436;28;20066;-87
2023/03/04 00:23:37;;;;;;;9.40;1.60;;;5.90;99.90;;;;;;5076146;28;20048;-87
2023/03/04 00:26:03;;;;;;;10.90;2.17;;;5.90;99.90;;;;;;5058914;28;20047;-87
2023/03/04 00:28:28;;;;;;;8.25;1.38;;;5.90;99.90;;;;;;5058384;28;20120;-87
2023/03/04 00:30:54;;;;;;;16.73;2.10;;;5.90;99.90;;;;;;5075717;28;20121;-87
2023/03/04 00:33:20;;;;;;;8.75;1.33;;;5.90;99.90;;;;;;5054809;28;20040;-88
2023/03/04 00:35:46;;;;;;;11.60;1.60;;;5.90;99.90;;;;;;5081409;28;20579;-87
2023/03/04 00:38:11;;;;;;;10.52;1.98;;;5.50;99.90;;;;;;5066062;28;20047;-88
2023/03/04 00:40:37;;;;;;;9.73;1.73;;;5.90;99.90;;;;;;5071681;28;20044;-87
2023/03/04 00:43:03;;;;;;;9.48;1.52;;;5.90;99.90;;;;;;5083428;28;20059;-87
2023/03/04 00:45:29;;;;;;;11.18;1.92;;;5.90;99.90;;;;;;5070698;28;20051;-87
2023/03/04 00:47:54;;;;;;;10.05;1.50;;;5.90;99.90;;;;;;5078445;28;20041;-87
2023/03/04 00:50:20;;;;;;;9.85;1.30;;;5.90;99.90;;;;;;5059499;28;20044;-87
2023/03/04 00:52:46;;;;;;;10.23;1.90;;;5.20;99.90;;;;;;5069524;28;20126;-88
2023/03/04 00:55:12;;;;;;;12.18;1.90;;;5.90;99.90;;;;;;5077054;28;20402;-88
2023/03/04 00:57:38;;;;;;;8.73;1.35;;;5.90;99.90;;;;;;5071596;28;20038;-88
2023/03/04 01:00:04;;;;;;;15.38;1.40;;;5.90;99.90;;;;;;5074550;28;20111;-87
2023/03/04 01:02:33;;;;;;;9.57;1.63;;;5.90;99.90;;;;;;5082161;28;20028;-86
2023/03/04 01:04:58;;;;;;;12.55;1.55;;;5.90;99.90;;;;;;5081431;28;20054;-87
2023/03/04 01:07:24;;;;;;;7.28;1.30;;;5.90;99.90;;;;;;5079291;28;20044;-88
2023/03/04 01:09:50;;;;;;;8.57;1.20;;;5.90;99.90;;;;;;5079528;28;20089;-88
2023/03/04 01:12:16;;;;;;;12.93;1.30;;;5.90;99.90;;;;;;5075447;28;20044;-88
2023/03/04 01:14:41;;;;;;;16.23;1.77;;;5.90;99.90;;;;;;5077669;28;20044;-88
2023/03/04 01:17:07;;;;;;;14.60;1.58;;;5.90;99.90;;;;;;5070500;28;20110;-87
2023/03/04 01:19:33;;;;;;;12.93;1.48;;;5.90;99.90;;;;;;5059152;28;20084;-87
2023/03/04 01:21:59;;;;;;;10.73;1.83;;;5.90;99.90;;;;;;5076890;28;20422;-88
2023/03/04 01:24:24;;;;;;;9.90;1.70;;;5.90;99.90;;;;;;5071245;28;20398;-88
2023/03/04 01:26:50;;;;;;;10.73;1.50;;;5.90;99.90;;;;;;5077098;28;20040;-88
2023/03/04 01:29:16;;;;;;;14.02;2.10;;;5.90;99.90;;;;;;5074660;28;20527;-87
2023/03/04 01:31:42;;;;;;;9.82;1.58;;;5.90;99.90;;;;;;5071082;28;20102;-87
2023/03/04 01:34:08;;;;;;;10.40;1.65;;;5.80;99.90;;;;;;5070704;28;20033;-87
2023/03/04 01:36:34;;;;;;;13.18;2.03;;;5.90;99.90;;;;;;5072117;28;20035;-88
2023/03/04 01:39:00;;;;;;;10.27;1.35;;;5.80;99.90;;;;;;5068450;28;20044;-87
2023/03/04 01:41:26;;;;;;;12.88;2.38;;;5.80;99.90;;;;;;5070005;28;20071;-88
2023/03/04 01:43:55;;;;;;;8.45;1.40;;;5.80;99.90;;;;;;5069924;28;20036;-88
2023/03/04 01:46:21;;;;;;;12.43;1.13;;;5.80;99.90;;;;;;5075171;28;20479;-88
2023/03/04 01:48:47;;;;;;;10.40;1.58;;;6.40;99.90;;;;;;5085946;28;20052;-88
2023/03/04 01:51:16;;;;;;;7.70;1.13;;;5.80;99.90;;;;;;5083413;28;20044;-88
2023/03/04 01:53:44;;;;;;;10.80;1.52;;;5.80;99.90;;;;;;5053129;28;20051;-88
2023/03/04 01:56:22;;;;;;;10.48;1.52;;;5.80;99.90;;;;;;5070520;28;20047;-88
2023/03/04 01:59:07;;;;;;;10.65;1.52;;;5.80;99.90;;;;;;5071381;28;20132;-88
2023/03/04 02:01:33;;;;;;;11.07;1.65;;;5.80;99.90;;;;;;5070713;28;20036;-88
2023/03/04 02:03:59;;;;;;;12.02;1.42;;;5.80;99.90;;;;;;5074734;28;20054;-88
2023/03/04 02:06:25;;;;;;;11.52;1.48;;;5.80;99.90;;;;;;5070094;28;20041;-88
2023/03/04 02:08:51;;;;;;;15.85;2.47;;;5.70;99.90;;;;;;5079706;28;20459;-88
2023/03/04 02:11:16;;;;;;;11.05;2.08;;;5.80;99.90;;;;;;5077412;28;20823;-87
2023/03/04 02:13:42;;;;;;;14.07;1.38;;;5.80;99.90;;;;;;5074327;28;20131;-88
2023/03/04 02:16:08;;;;;;;14.80;1.77;;;5.90;99.90;;;;;;5057066;28;20123;-88
2023/03/04 02:18:34;;;;;;;10.25;1.67;;;5.80;99.90;;;;;;5072561;28;20028;-87
2023/03/04 02:21:30;;;;;;;17.45;1.90;;;5.80;99.90;;;;;;5079567;28;20048;-88
2023/03/04 02:24:07;;;;;;;9.40;1.75;;;5.70;99.90;;;;;;5082165;28;20099;-88
2023/03/04 02:26:34;;;;;;;12.73;1.50;;;5.80;99.90;;;;;;5082993;28;20028;-87
2023/03/04 02:29:01;;;;;;;11.60;1.77;;;5.70;99.90;;;;;;5069631;28;20509;-87
2023/03/04 02:31:34;;;;;;;7.85;1.65;;;5.70;99.90;;;;;;5075658;28;20036;-88
2023/03/04 02:34:07;;;;;;;11.43;1.35;;;5.70;99.90;;;;;;5070967;28;20037;-88
2023/03/04 02:36:35;;;;;;;11.48;1.50;;;5.70;99.90;;;;;;5071334;28;20052;-88
2023/03/04 02:39:10;;;;;;;11.82;1.20;;;5.70;99.90;;;;;;5055135;28;20048;-87
2023/03/04 02:41:36;;;;;;;11.70;1.98;;;5.70;99.90;;;;;;5077441;28;20032;-88
2023/03/04 02:44:03;;;;;;;14.05;2.55;;;5.70;99.90;;;;;;5080427;28;20063;-88
2023/03/04 02:46:29;;;;;;;9.43;2.15;;;5.60;99.90;;;;;;5064395;28;20036;-87
2023/03/04 02:48:54;;;;;;;13.70;1.85;;;5.60;99.90;;;;;;5052558;28;20042;-88
2023/03/04 02:51:20;;;;;;;7.25;1.30;;;6.70;99.90;;;;;;5051873;28;20033;-87
2023/03/04 02:53:46;;;;;;;8.85;1.98;;;5.60;99.90;;;;;;5065246;28;20048;-88
2023/03/04 02:56:12;;;;;;;7.70;1.50;;;5.60;99.90;;;;;;5065866;28;20036;-88
2023/03/04 02:58:39;;;;;;;11.27;1.80;;;5.60;99.90;;;;;;5074457;28;20036;-88
2023/03/04 03:01:05;;;;;;;10.48;1.55;;;5.60;99.90;;;;;;5072457;28;20040;-88
2023/03/04 03:03:31;;;;;;;13.07;1.83;;;5.60;99.90;;;;;;5070052;28;20032;-88
2023/03/04 03:05:57;;;;;;;8.57;1.60;;;6.20;99.90;;;;;;5072580;28;20115;-87
2023/03/04 03:08:23;;;;;;;8.20;1.30;;;5.70;99.90;;;;;;5055401;28;20048;-88
2023/03/04 03:10:48;;;;;;;6.40;1.30;;;5.70;99.90;;;;;;5066096;28;20059;-87
2023/03/04 03:13:14;;;;;;;8.55;1.42;;;6.40;99.90;;;;;;5066670;28;20032;-88
2023/03/04 03:15:41;;;;;;;9.13;1.65;;;5.60;99.90;;;;;;5077397;28;20089;-88
2023/03/04 03:18:09;;;;;;;7.05;1.30;;;5.60;99.90;;;;;;5075772;28;20054;-88
2023/03/04 03:20:36;;;;;;;7.10;1.50;;;5.60;99.90;;;;;;5068525;28;20037;-88
2023/03/04 03:23:01;;;;;;;10.70;1.40;;;5.70;99.90;;;;;;5070955;28;20041;-88
2023/03/04 03:25:27;;;;;;;9.88;1.40;;;5.60;99.90;;;;;;5072656;28;20195;-88
2023/03/04 03:27:53;;;;;;;12.73;1.52;;;5.70;99.90;;;;;;5067484;28;20041;-87
2023/03/04 03:30:19;;;;;;;9.10;1.52;;;5.60;99.90;;;;;;5068155;28;20205;-88
2023/03/04 03:32:44;;;;;;;7.57;1.30;;;5.60;99.90;;;;;;5073019;28;20534;-88
2023/03/04 03:35:11;;;;;;;11.68;1.75;;;5.60;99.90;;;;;;5084400;28;20509;-88
2023/03/04 03:37:36;;;;;;;9.75;1.23;;;5.60;99.90;;;;;;5069172;28;20465;-88
2023/03/04 03:40:03;;;;;;;8.38;1.42;;;5.60;99.90;;;;;;5072708;28;20036;-88
2023/03/04 03:42:29;;;;;;;11.65;1.55;;;5.60;99.90;;;;;;5057492;28;20032;-88
2023/03/04 03:44:55;;;;;;;9.07;1.42;;;5.60;99.90;;;;;;5062258;28;20043;-88
2023/03/04 03:47:21;;;;;;;4.80;0.90;;;5.60;99.90;;;;;;5079327;28;20113;-88
2023/03/04 03:49:47;;;;;;;12.23;1.40;;;5.60;99.90;;;;;;5075200;28;20036;-88
2023/03/04 03:52:12;;;;;;;11.02;1.48;;;5.60;99.90;;;;;;5061739;28;20502;-88
2023/03/04 03:54:38;;;;;;;8.07;1.20;;;5.60;99.90;;;;;;5066055;28;20103;-88
2023/03/04 03:57:04;;;;;;;10.40;1.48;;;5.60;99.90;;;;;;5070583;28;20076;-87
2023/03/04 03:59:30;;;;;;;12.52;1.52;;;5.60;99.90;;;;;;5071811;28;20048;-88
2023/03/04 04:01:56;;;;;;;14.18;1.73;;;5.80;99.90;;;;;;5073333;28;20124;-88
2023/03/04 04:04:21;;;;;;;9.23;1.20;;;5.60;99.90;;;;;;5072620;28;20032;-88
2023/03/04 04:06:47;;;;;;;11.63;1.67;;;5.90;99.90;;;;;;5074835;28;20076;-88
2023/03/04 04:09:13;;;;;;;8.05;1.00;;;5.60;99.90;;;;;;5084890;28;20068;-88
2023/03/04 04:11:39;;;;;;;10.23;1.42;;;5.60;99.90;;;;;;5071783;28;20115;-88
2023/03/04 04:14:05;;;;;;;10.18;1.20;;;5.60;99.90;;;;;;5071141;28;20075;-88
2023/03/04 04:16:30;;;;;;;8.30;1.33;;;5.60;99.90;;;;;;5081611;28;20112;-88
2023/03/04 04:18:56;;;;;;;9.07;1.48;;;5.60;99.90;;;;;;5073020;28;20112;-88
2023/03/04 04:21:22;;;;;;;8.65;1.38;;;5.60;99.90;;;;;;5077146;28;20474;-87
2023/03/04 04:23:48;;;;;;;10.55;1.20;;;5.60;99.90;;;;;;5070728;28;20102;-87
2023/03/04 04:26:14;;;;;;;9.57;1.20;;;5.60;99.90;;;;;;5057643;28;20043;-88
2023/03/04 04:28:39;;;;;;;10.23;1.70;;;5.60;99.90;;;;;;5076140;28;20032;-88
2023/03/04 04:31:09;;;;;;;4.35;1.10;;;5.60;99.90;;;;;;5073159;28;20048;-88
2023/03/04 04:33:35;;;;;;;7.43;1.00;;;5.70;99.90;;;;;;5072785;28;20044;-88
2023/03/04 04:36:02;;;;;;;6.45;1.55;;;5.60;99.90;;;;;;5074383;28;20391;-88
2023/03/04 04:38:28;;;;;;;11.30;1.08;;;5.60;99.90;;;;;;5079276;28;20036;-88
2023/03/04 04:40:57;;;;;;;9.05;1.20;;;5.60;99.90;;;;;;5081700;28;20502;-87
2023/03/04 04:43:23;;;;;;;10.68;1.50;;;5.60;99.90;;;;;;5061161;28;20043;-88
2023/03/04 04:45:51;;;;;;;13.35;1.13;;;5.60;99.90;;;;;;5076711;28;20046;-88
2023/03/04 04:48:17;;;;;;;7.00;1.35;;;5.60;99.90;;;;;;5060090;28;20033;-88
2023/03/04 04:50:43;;;;;;;8.90;1.10;;;5.60;99.90;;;;;;5078585;28;20123;-88
2023/03/04 04:53:12;;;;;;;6.10;0.82;;;5.60;99.90;;;;;;5078217;28;20395;-88
2023/03/04 04:55:38;;;;;;;13.68;1.52;;;5.60;99.90;;;;;;5086203;28;20078;-88
2023/03/04 04:58:06;;;;;;;8.77;1.45;;;5.70;99.90;;;;;;5082073;28;20064;-88
2023/03/04 05:00:32;;;;;;;8.75;1.63;;;5.60;99.90;;;;;;5071421;28;20043;-87
2023/03/04 05:02:57;;;;;;;11.23;1.77;;;5.60;99.90;;;;;;5082692;28;20119;-88
2023/03/04 05:05:23;;;;;;;8.00;1.38;;;5.60;99.90;;;;;;5079844;28;20040;-88
2023/03/04 05:07:49;;;;;;;13.98;1.48;;;5.60;99.90;;;;;;5074743;28;20384;-88
2023/03/04 05:10:15;;;;;;;9.63;1.25;;;5.60;99.90;;;;;;5078701;28;20037;-88
2023/03/04 05:12:43;;;;;;;8.48;1.50;;;5.60;99.90;;;;;;5073484;28;20120;-88
2023/03/04 05:15:09;;;;;;;12.57;1.40;;;5.60;99.90;;;;;;5076986;28;20090;-87
2023/03/04 05:17:35;;;;;;;8.30;1.20;;;5.60;99.90;;;;;;5081288;28;20449;-88
2023/03/04 05:20:01;;;;;;;4.35;0.90;;;5.50;99.90;;;;;;5075683;28;20044;-88
2023/03/04 05:22:26;;;;;;;10.32;1.40;;;5.50;99.90;;;;;;5072381;28;20024;-88
2023/03/04 05:24:52;;;;;;;10.95;1.23;;;5.50;99.90;;;;;;5070360;28;20032;-88
2023/03/04 05:27:18;;;;;;;6.20;1.30;;;5.50;99.90;;;;;;5073076;28;20384;-87
2023/03/04 05:29:45;;;;;;;7.90;1.83;;;5.60;99.90;;;;;;5072709;28;20051;-88
2023/03/04 05:32:11;;;;;;;4.25;0.93;;;5.60;99.90;;;;;;5087042;28;20039;-88
2023/03/04 05:34:36;;;;;;;8.35;1.10;;;5.50;99.90;;;;;;5083418;28;20059;-88
2023/03/04 05:37:02;;;;;;;6.40;1.52;;;5.50;99.90;;;;;;5080122;28;20398;-88
2023/03/04 05:39:28;;;;;;;9.65;1.33;;;5.50;99.90;;;;;;5066480;28;20047;-87
2023/03/04 05:41:54;;;;;;;7.50;1.45;;;5.50;99.90;;;;;;5066390;28;20033;-88
2023/03/04 05:44:19;;;;;;;9.88;1.90;;;5.50;99.90;;;;;;5073236;28;20036;-88
2023/03/04 05:46:45;;;;;;;8.45;1.23;;;5.50;99.90;;;;;;5052515;28;20442;-88
2023/03/04 05:49:11;;;;;;;11.02;1.27;;;5.50;99.90;;;;;;5072444;28;20089;-87
2023/03/04 05:51:40;;;;;;;7.55;1.35;;;5.50;99.90;;;;;;5070596;28;20051;-88
2023/03/04 05:54:05;;;;;;;12.65;2.38;;;5.50;99.90;;;;;;5076628;28;20093;-87
2023/03/04 05:56:32;;;;;;;10.82;1.15;;;5.50;99.90;;;;;;5071967;28;20768;-88
2023/03/04 05:58:58;;;;;;;7.20;1.10;;;5.50;99.90;;;;;;5070898;28;20109;-87
2023/03/04 06:01:24;;;;;;;8.52;1.58;;;5.50;99.90;;;;;;5072131;28;20064;-88
2023/03/04 06:03:50;;;;;;;10.85;1.25;;;5.50;99.90;;;;;;5071833;28;20034;-87
2023/03/04 06:06:16;;;;;;;7.80;1.38;;;5.50;99.90;;;;;;5070705;28;20515;-88
2023/03/04 06:08:42;;;;;;;7.95;1.60;;;5.50;99.90;;;;;;5069749;28;20062;-88
2023/03/04 06:11:08;;;;;;;9.13;1.90;;;5.50;99.90;;;;;;5077940;28;20054;-87
2023/03/04 06:13:34;;;;;;;8.82;1.70;;;5.50;99.90;;;;;;5069295;28;20047;-88
2023/03/04 06:16:00;;;;;;;11.57;1.17;;;5.50;99.90;;;;;;5062756;28;20036;-88
2023/03/04 06:18:27;;;;;;;9.30;1.40;;;5.50;99.90;;;;;;5076952;28;20128;-88
2023/03/04 06:21:01;;;;;;;10.32;1.38;;;5.50;99.90;;;;;;5069784;28;20055;-88
2023/03/04 06:23:27;;;;;;;12.23;1.73;;;5.50;99.90;;;;;;5060307;28;20063;-87
2023/03/04 06:25:55;;;;;;;6.18;1.25;;;5.50;99.90;;;;;;5082943;28;20394;-88
2023/03/04 06:28:21;;;;;;;10.77;0.93;;;5.50;99.90;;;;;;5083927;28;20100;-83
2023/03/04 06:30:47;;;;;;;4.57;1.20;;;5.50;99.90;;;;;;5073538;28;20122;-88
2023/03/04 06:33:13;;;;;;;9.07;1.00;;;5.50;99.90;;;;;;5072309;28;20044;-83
2023/03/04 06:35:39;;;;;;;9.02;1.33;;;5.50;99.90;;;;;;5073462;28;20052;-85
2023/03/04 06:38:04;;;;;;;10.50;1.55;;;5.60;99.90;;;;;;5070231;28;20068;-84
2023/03/04 06:40:30;;;;;;;5.95;1.50;;;5.60;99.90;;;;;;5074310;28;20044;-84
2023/03/04 06:42:55;;;;;;;6.93;1.30;;;5.60;99.90;;;;;;5068502;28;20036;-84
2023/03/04 06:45:21;;;;;;;5.20;1.25;;;5.50;99.90;;;;;;5076028;28;20037;-83
2023/03/04 06:47:49;;;;;;;11.57;1.30;;;5.50;99.90;;;;;;5071444;28;20044;-84
2023/03/04 06:50:15;;;;;;;8.40;1.85;;;5.50;99.90;;;;;;5071966;28;20383;-84
2023/03/04 06:52:41;;;;;;;9.50;1.65;;;5.60;99.90;;;;;;5063197;28;20372;-83
2023/03/04 06:55:08;;;;;;;7.80;1.10;;;5.60;99.90;;;;;;5073953;28;20040;-84
2023/03/04 06:57:34;;;;;;;5.00;1.17;;;5.60;99.90;;;;;;5069456;28;20048;-84
2023/03/04 07:00:02;;;;;;;9.63;1.38;;;5.50;99.90;;;;;;5081975;28;20085;-84
2023/03/04 07:02:27;;;;;;;4.28;1.20;;;5.60;99.90;;;;;;5068521;28;20494;-84
2023/03/04 07:04:53;;;;;;;8.82;0.93;;;5.60;99.90;;;;;;5072379;28;20129;-84
2023/03/04 07:07:19;;;;;;;7.22;1.00;;;5.60;99.90;;;;;;5065072;28;20510;-85
2023/03/04 07:09:44;;;;;;;4.60;1.08;;;5.60;99.90;;;;;;5072482;28;20419;-84
2023/03/04 07:12:10;;;;;;;12.75;2.30;;;5.60;99.90;;;;;;5073460;28;20067;-84
2023/03/04 07:14:36;;;;;;;12.52;1.08;;;5.60;99.90;;;;;;5077861;28;20040;-84
2023/03/04 07:17:01;;;;;;;4.88;0.88;;;5.60;99.90;;;;;;5083825;28;20043;-84
2023/03/04 07:19:27;;;;;;;7.68;1.05;;;5.60;99.90;;;;;;5077007;28;20044;-83
2023/03/04 07:21:53;;;;;;;9.73;1.58;;;5.60;99.90;;;;;;5084658;28;20035;-84
2023/03/04 07:24:18;;;;;;;6.75;1.15;;;5.60;99.90;;;;;;5075454;28;20103;-82
2023/03/04 07:26:44;;;;;;;6.82;1.25;;;5.70;99.90;;;;;;5073793;28;20098;-83
2023/03/04 07:29:11;;;;;;;7.25;1.00;;;5.70;99.90;;;;;;5073080;28;20475;-83
2023/03/04 07:31:36;;;;;;;6.78;1.70;;;5.80;99.90;;;;;;5077664;28;20033;-87
2023/03/04 07:34:13;;;;;;;8.98;1.60;;;5.70;99.90;;;;;;5071880;28;20036;-84
2023/03/04 07:36:39;;;;;;;9.73;1.90;;;5.70;99.90;;;;;;5070346;28;20064;-83
2023/03/04 07:39:05;;;;;;;8.93;1.38;;;5.70;99.90;;;;;;5071145;28;20083;-82
2023/03/04 07:41:35;;;;;;;13.20;1.58;;;5.80;99.90;;;;;;5076875;28;20446;-83
2023/03/04 07:44:01;;;;;;;5.45;0.90;;;5.80;99.90;;;;;;5074304;28;20040;-83
2023/03/04 07:46:27;;;;;;;7.57;1.20;;;5.80;99.90;;;;;;5067577;28;20116;-83
2023/03/04 07:48:54;;;;;;;9.80;1.20;;;5.80;99.90;;;;;;5074429;28;20132;-82
2023/03/04 07:51:22;;;;;;;14.88;1.70;;;5.80;99.90;;;;;;5076392;28;20044;-83
2023/03/04 07:54:00;;;;;;;9.85;1.30;;;5.70;99.90;;;;;;5075242;28;20103;-83
2023/03/04 07:56:28;;;;;;;9.23;1.25;;;5.80;99.90;;;;;;5071571;28;20072;-82
2023/03/04 07:58:55;;;;;;;5.85;1.15;;;5.80;99.90;;;;;;5060671;28;20449;-83
2023/03/04 08:01:28;;;;;;;9.00;1.10;;;5.80;99.90;;;;;;5073926;28;20059;-83
2023/03/04 08:03:54;;;;;;;9.18;1.20;;;5.80;99.90;;;;;;5069044;28;20036;-83
2023/03/04 08:06:20;;;;;;;6.28;0.90;;;5.80;99.90;;;;;;5071018;28;20035;-83
2023/03/04 08:08:47;;;;;;;9.25;1.20;;;5.80;99.90;;;;;;5079770;28;20059;-83
2023/03/04 08:11:15;;;;;;;13.10;1.65;;;5.80;99.90;;;;;;5080686;28;20044;-85
2023/03/04 08:13:41;;;;;;;7.10;1.20;;;5.80;99.90;;;;;;5076992;28;20545;-83
2023/03/04 08:16:07;;;;;;;12.07;1.77;;;5.90;99.90;;;;;;5074283;28;20032;-89
2023/03/04 08:18:33;;;;;;;8.73;2.00;;;5.80;99.90;;;;;;5077701;28;20041;-90
2023/03/04 08:20:59;;;;;;;12.60;2.47;;;5.90;99.90;;;;;;5081274;28;20394;-89
2023/03/04 08:23:24;;;;;;;15.82;2.20;;;5.80;99.90;;;;;;5076236;28;20111;-89
2023/03/04 08:25:50;;;;;;;13.82;2.58;;;5.80;99.90;;;;;;5074613;28;20051;-90
2023/03/04 08:28:16;;;;;;;19.02;2.63;;;5.80;99.90;;;;;;5073792;28;20070;-88
2023/03/04 08:30:42;;;;;;;13.30;2.50;;;5.90;99.90;;;;;;5078869;28;20055;-89
2023/03/04 08:33:08;;;;;;;14.63;2.20;;;5.90;99.90;;;;;;5071228;28;20044;-89
2023/03/04 08:35:38;;;;;;;9.30;1.70;;;5.90;99.90;;;;;;5072282;28;20113;-91
2023/03/04 08:38:05;;;;;;;16.35;2.55;;;5.90;99.90;;;;;;5076558;28;20052;-92
2023/03/04 08:40:31;;;;;;;18.67;2.72;;;5.90;99.90;;;;;;5078236;28;20078;-88
2023/03/04 08:42:57;;;;;;;17.42;2.40;;;6.00;99.90;;;;;;5081019;28;20036;-87
2023/03/04 08:45:22;;;;;;;16.67;2.35;;;6.00;99.90;;;;;;5075561;28;20444;-84
2023/03/04 08:47:50;;;;;;;20.30;2.75;;;6.00;99.90;;;;;;5073131;28;20033;-83
2023/03/04 08:50:15;;;;;;;16.23;2.30;;;6.00;99.90;;;;;;5083926;28;20047;-84
2023/03/04 08:52:41;;;;;;;22.75;3.05;;;6.00;99.90;;;;;;5074411;28;20036;-84
2023/03/04 08:55:07;;;;;;;15.85;2.88;;;6.00;99.90;;;;;;5070564;28;20451;-85
2023/03/04 08:57:33;;;;;;;19.33;3.22;;;6.00;99.90;;;;;;5071250;28;20047;-85
2023/03/04 08:59:59;;;;;;;23.40;3.33;;;6.00;99.90;;;;;;5072365;28;20108;-85
2023/03/04 09:02:24;;;;;;;18.38;2.80;;;6.00;99.90;;;;;;5079827;28;20032;-84
2023/03/04 09:04:50;;;;;;;14.57;2.13;;;6.00;99.90;;;;;;5071599;28;20028;-84
2023/03/04 09:07:15;;;;;;;21.90;3.33;;;6.10;99.90;;;;;;5077162;28;20086;-85
2023/03/04 09:09:41;;;;;;;24.60;4.03;;;6.10;99.90;;;;;;5075390;28;20028;-86
2023/03/04 09:12:07;;;;;;;19.60;2.60;;;6.10;99.90;;;;;;5071314;28;20048;-86
2023/03/04 09:14:34;;;;;;;14.57;2.55;;;6.10;99.90;;;;;;5079658;28;20103;-86
2023/03/04 09:17:01;;;;;;;16.92;2.78;;;6.10;99.90;;;;;;5074539;28;20045;-86
2023/03/04 09:19:27;;;;;;;14.45;3.30;;;6.10;99.90;;;;;;5076625;28;20920;-86
2023/03/04 09:21:54;;;;;;;19.05;2.60;;;6.20;99.90;;;;;;5079686;28;20058;-86
2023/03/04 09:24:20;;;;;;;19.40;3.80;;;6.30;99.90;;;;;;5084736;28;20036;-88
2023/03/04 09:26:50;;;;;;;12.93;2.95;;;6.20;99.90;;;;;;5076495;28;20068;-87
2023/03/04 09:29:16;;;;;;;13.57;2.03;;;6.30;99.90;;;;;;5077561;28;20047;-89
2023/03/04 09:31:41;;;;;;;10.73;2.22;;;6.30;99.90;;;;;;5069067;28;20032;-85
2023/03/04 09:34:07;;;;;;;9.60;2.35;;;6.30;99.90;;;;;;5068388;28;20032;-87
2023/03/04 09:36:32;;;;;;;15.85;3.05;;;6.30;99.90;;;;;;5075448;28;20119;-86
2023/03/04 09:39:00;;;;;;;13.88;2.20;;;6.30;99.90;;;;;;5070874;28;20036;-85
2023/03/04 09:41:38;;;;;;;10.02;2.08;;;6.40;99.90;;;;;;5071556;28;20098;-86
2023/03/04 09:44:13;;;;;;;12.25;2.45;;;6.40;99.90;;;;;;5074960;28;20131;-87
2023/03/04 09:46:42;;;;;;;19.20;1.88;;;6.40;99.90;;;;;;5074318;28;20067;-86
2023/03/04 09:49:11;;;;;;;12.02;1.63;;;6.40;99.90;;;;;;5077957;28;20052;-87
2023/03/04 09:52:17;;;;;;;9.00;1.13;;;6.40;99.90;;;;;;5073830;28;20094;-87
2023/03/04 09:54:51;;;;;;;12.38;2.17;;;6.40;99.90;;;;;;5072378;28;20487;-86
2023/03/04 09:57:20;;;;;;;6.25;1.20;;;7.00;99.90;;;;;;5077954;28;20039;-85
2023/03/04 10:00:12;;;;;;;9.27;1.35;;;6.40;99.90;;;;;;5084192;28;20056;-85
2023/03/04 10:02:56;;;;;;;13.48;1.20;;;6.40;99.90;;;;;;5078312;28;20058;-86
2023/03/04 10:05:24;;;;;;;11.40;1.50;;;6.50;99.90;;;;;;5071545;28;20040;-85
2023/03/04 10:07:57;;;;;;;11.35;1.42;;;6.50;99.90;;;;;;5076030;28;20040;-85
2023/03/04 10:10:36;;;;;;;5.70;0.90;;;6.60;99.90;;;;;;5077251;28;20108;-86
2023/03/04 10:13:03;;;;;;;8.52;0.93;;;6.60;99.90;;;;;;5069158;28;20056;-86
2023/03/04 10:15:45;;;;;;;10.18;1.50;;;6.70;99.90;;;;;;5076816;28;20041;-86
2023/03/04 10:18:18;;;;;;;7.63;1.42;;;6.80;99.90;;;;;;5071557;28;20548;-86
2023/03/04 10:20:57;;;;;;;9.20;1.20;;;6.90;99.90;;;;;;5075429;28;20123;-85
2023/03/04 10:23:26;;;;;;;9.05;1.30;;;6.90;99.90;;;;;;5071509;28;20209;-85
2023/03/04 10:25:55;;;;;;;10.80;1.40;;;6.90;99.90;;;;;;5074411;28;20083;-86
2023/03/04 10:28:25;;;;;;;8.25;1.80;;;6.80;99.90;;;;;;5070304;28;20032;-86
2023/03/04 10:31:02;;;;;;;12.82;1.75;;;6.80;99.90;;;;;;5075145;28;20582;-85
2023/03/04 10:33:36;;;;;;;14.18;1.63;;;6.80;99.90;;;;;;5073880;28;21634;-85
2023/03/04 10:36:28;;;;;;;11.95;1.63;;;6.70;99.90;;;;;;5075325;28;20047;-86
2023/03/04 10:39:00;;;;;;;12.88;2.25;;;6.70;99.90;;;;;;5073890;28;20036;-86
2023/03/04 10:41:28;;;;;;;13.43;2.53;;;6.70;99.90;;;;;;5075577;28;20119;-86
2023/03/04 10:44:03;;;;;;;15.77;1.90;;;6.80;99.90;;;;;;5069482;28;20032;-86
2023/03/04 10:46:30;;;;;;;13.60;1.85;;;6.80;99.90;;;;;;5074983;28;20643;-86
2023/03/04 10:48:57;;;;;;;8.75;1.88;;;6.90;99.90;;;;;;5074869;28;20043;-86
2023/03/04 10:51:25;;;;;;;11.50;2.03;;;6.90;99.90;;;;;;5078807;28;20484;-87
2023/03/04 10:54:18;;;;;;;12.45;1.90;;;6.90;99.90;;;;;;5082991;28;20044;-86
2023/03/04 10:56:54;;;;;;;14.23;1.83;;;6.90;99.90;;;;;;4998249;28;20060;-87
2023/03/04 10:59:39;;;;;;;16.73;2.50;;;6.90;99.90;;;;;;4989730;28;20438;-87
2023/03/04 11:02:27;;;;;;;13.35;2.30;;;6.90;99.90;;;;;;5003891;28;20104;-87
2023/03/04 11:05:13;;;;;;;12.80;1.92;;;6.90;99.90;;;;;;4998291;28;20105;-87
2023/03/04 11:07:47;;;;;;;10.40;1.88;;;6.90;99.90;;;;;;4999451;28;20050;-87
2023/03/04 11:10:21;;;;;;;15.88;2.10;;;6.90;99.90;;;;;;4996934;28;20096;-87
2023/03/04 11:13:08;;;;;;;10.88;1.85;;;7.00;99.90;;;;;;4998387;28;20112;-87
2023/03/04 11:16:02;;;;;;;13.63;2.10;;;7.00;99.90;;;;;;4983928;28;20050;-87
2023/03/04 11:18:39;;;;;;;10.77;1.48;;;7.10;99.90;;;;;;4981403;28;20051;-87
2023/03/04 11:21:13;;;;;;;12.65;1.88;;;7.20;99.90;;;;;;4974838;28;20104;-87
2023/03/04 11:23:50;;;;;;;14.38;1.95;;;7.20;99.90;;;;;;4998134;28;20045;-88
2023/03/04 11:26:27;;;;;;;11.27;2.55;;;7.10;99.90;;;;;;4992813;28;20061;-84
2023/03/04 11:28:59;;;;;;;12.73;1.67;;;7.10;99.90;;;;;;5001015;28;20042;-84
2023/03/04 11:31:37;;;;;;;15.05;2.30;;;7.00;99.90;;;;;;4994616;28;20092;-84
2023/03/04 11:34:06;;;;;;;13.80;2.08;;;7.00;99.90;;;;;;5048258;28;20114;-84
2023/03/04 11:36:56;;;;;;;15.75;2.67;;;7.00;99.90;;;;;;5075386;28;20036;-84
2023/03/04 11:39:37;;;;;;;13.75;2.45;;;7.00;99.90;;;;;;5082017;28;20053;-85
2023/03/04 11:42:12;;;;;;;13.02;1.63;;;7.10;99.90;;;;;;5072450;28;20501;-85
2023/03/04 11:44:40;;;;;;;13.52;2.50;;;7.10;99.90;;;;;;5075220;28;20051;-85
2023/03/04 11:47:41;;;;;;;16.20;2.85;;;7.20;99.90;;;;;;5076693;28;20064;-84
2023/03/04 11:50:31;;;;;;;14.77;2.47;;;7.40;99.90;;;;;;5083449;28;20069;-85
2023/03/04 11:53:15;;;;;;;13.48;1.95;;;7.60;99.90;;;;;;5083071;28;20111;-84
2023/03/04 11:56:18;;;;;;;10.88;2.28;;;7.60;99.90;;;;;;5080542;28;20044;-84
2023/03/04 11:59:08;;;;;;;16.98;2.33;;;7.60;99.90;;;;;;5075908;28;20123;-85
2023/03/04 12:01:58;;;;;;;15.48;2.00;;;7.60;99.90;;;;;;5083358;28;20044;-85
2023/03/04 12:04:32;;;;;;;12.57;2.00;;;7.60;99.90;;;;;;5075019;28;20475;-85
2023/03/04 12:07:25;;;;;;;12.63;1.70;;;7.60;99.90;;;;;;5081639;28;20052;-85
2023/03/04 12:10:03;;;;;;;12.55;1.60;;;7.60;99.90;;;;;;5081452;28;20128;-86
2023/03/04 12:12:28;;;;;;;12.52;1.95;;;7.70;99.90;;;;;;5080587;28;20051;-94
2023/03/04 12:15:12;;;;;;;13.77;2.10;;;7.80;99.90;;;;;;5083878;28;20044;-92
2023/03/04 12:17:54;;;;;;;13.98;2.50;;;7.90;99.90;;;;;;5070788;28;20059;-92
2023/03/04 12:20:40;;;;;;;11.98;2.05;;;8.20;99.90;;;;;;5077816;28;20047;-85
2023/03/04 12:23:23;;;;;;;17.20;2.10;;;8.10;99.90;;;;;;5077640;28;21264;-89
2023/03/04 12:26:34;;;;;;;13.23;2.65;;;8.00;99.90;;;;;;5080478;28;20039;-87
2023/03/04 12:29:41;;;;;;;15.00;2.20;;;7.80;99.90;;;;;;5065793;28;20044;-88
2023/03/04 12:32:24;;;;;;;11.65;2.00;;;7.70;99.90;;;;;;5084080;28;20086;-88
2023/03/04 12:35:27;;;;;;;10.57;1.70;;;7.80;99.90;;;;;;5076597;28;20036;-85
2023/03/04 12:38:32;;;;;;;13.70;1.80;;;8.00;99.90;;;;;;5078133;28;20051;-86
2023/03/04 12:41:00;;;;;;;;;;;8.00;99.90;;;;;;5071227;28;20097;-90
2023/03/04 12:44:04;;;;;;;12.07;2.40;;;8.00;99.90;;;;;;5080864;28;19927;-89
2023/03/04 12:46:36;;;;;;;14.80;2.47;;;7.90;99.90;;;;;;5063785;28;20058;-86
2023/03/04 12:49:08;;;;;;;12.65;1.80;;;7.80;99.90;;;;;;5074551;28;20533;-87
2023/03/04 12:51:55;;;;;;;13.32;2.65;;;7.70;99.90;;;;;;5081238;28;20040;-85
2023/03/04 12:54:45;;;;;;;14.00;2.47;;;7.70;99.90;;;;;;5074142;28;20157;-83
2023/03/04 12:57:21;;;;;;;14.50;2.35;;;7.70;99.90;;;;;;5061322;28;20052;-82
2023/03/04 13:00:15;;;;;;;12.57;2.22;;;7.70;99.90;;;;;;5076661;28;20102;-83
2023/03/04 13:03:14;;;;;;;13.13;2.22;;;7.80;99.90;;;;;;5082247;28;20048;-82
2023/03/04 13:05:51;;;;;;;7.82;1.60;;;7.80;99.90;;;;;;5063261;28;20041;-83